createdAt,value
2019-01-13T00:02:12.229Z,253.62
2019-01-13T00:04:42.157Z,250.80
2019-01-13T00:07:12.019Z,247.30
2019-01-13T00:09:41.821Z,265.30
2019-01-13T00:12:11.449Z,258.60
2019-01-13T00:14:41.284Z,248.13
2019-01-13T00:17:12.160Z,250.15
2019-01-13T00:19:42.752Z,251.77
2019-01-13T00:22:13.515Z,256.30
2019-01-13T00:24:43.213Z,266.60
2019-01-13T00:27:13.005Z,258.87
2019-01-13T00:29:43.665Z,261.92
2019-01-13T00:32:13.335Z,257.40
2019-01-13T00:34:44.992Z,259.92
2019-01-13T00:37:14.758Z,265.35
2019-01-13T00:39:44.442Z,256.17
2019-01-13T00:42:14.099Z,260.83
2019-01-13T00:44:44.692Z,260.02
2019-01-13T00:47:14.619Z,258.55
2019-01-13T00:49:44.280Z,261.23
2019-01-13T00:52:14.951Z,255.20
2019-01-13T00:54:44.700Z,260.65
2019-01-13T00:57:14.482Z,264.60
2019-01-13T00:59:44.266Z,256.98
2019-01-13T01:02:14.056Z,265.02
2019-01-13T01:04:43.760Z,257.00
2019-01-13T01:07:13.562Z,260.13
2019-01-13T01:09:43.799Z,255.90
2019-01-13T01:12:13.579Z,255.65
2019-01-13T01:14:43.252Z,259.10
2019-01-13T01:17:13.102Z,260.17
2019-01-13T01:19:42.797Z,260.98
2019-01-13T01:22:13.395Z,263.30
2019-01-13T01:24:43.095Z,259.07
2019-01-13T01:27:12.869Z,260.70
2019-01-13T01:29:44.443Z,259.27
2019-01-13T01:32:14.179Z,262.20
2019-01-13T01:34:44.781Z,257.00
2019-01-13T01:37:14.552Z,255.18
2019-01-13T01:39:44.208Z,249.52
2019-01-13T01:42:14.247Z,253.85
2019-01-13T01:44:43.974Z,255.98
2019-01-13T01:47:13.806Z,263.68
2019-01-13T01:49:43.601Z,260.68
2019-01-13T01:52:15.270Z,256.75
2019-01-13T01:54:44.938Z,258.38
2019-01-13T01:57:14.682Z,260.93
2019-01-13T01:59:45.400Z,255.85
2019-01-13T02:02:15.166Z,253.12
2019-01-13T02:04:44.833Z,260.52
2019-01-13T02:07:14.567Z,257.90
2019-01-13T02:09:45.225Z,257.07
2019-01-13T02:12:14.971Z,255.75
2019-01-13T02:14:44.640Z,260.17
2019-01-13T02:17:14.458Z,259.57
2019-01-13T02:19:44.594Z,255.85
2019-01-13T02:22:14.349Z,247.65
2019-01-13T02:24:44.195Z,248.18
2019-01-13T02:27:14.018Z,254.10
2019-01-13T02:29:44.919Z,247.67
2019-01-13T02:32:14.674Z,258.68
2019-01-13T02:34:44.274Z,250.13
2019-01-13T02:37:14.008Z,252.38
2019-01-13T02:39:44.830Z,249.62
2019-01-13T02:42:14.645Z,256.38
2019-01-13T02:44:44.249Z,252.87
2019-01-13T02:47:13.925Z,250.68
2019-01-13T02:49:43.551Z,255.85
2019-01-13T02:52:13.233Z,248.25
2019-01-13T02:54:42.995Z,247.12
2019-01-13T02:57:12.666Z,240.45
2019-01-13T02:59:42.386Z,243.50
2019-01-13T03:02:13.126Z,242.30
2019-01-13T03:04:42.915Z,247.27
2019-01-13T03:07:12.583Z,243.10
2019-01-13T03:09:42.325Z,253.73
2019-01-13T03:12:11.983Z,252.78
2019-01-13T03:14:41.734Z,250.40
2019-01-13T03:17:11.899Z,254.85
2019-01-13T03:19:41.516Z,251.42
2019-01-13T03:22:11.246Z,249.67
2019-01-13T03:24:41.954Z,254.28
2019-01-13T03:27:11.749Z,255.95
2019-01-13T03:29:41.791Z,253.67
2019-01-13T03:32:11.475Z,257.13
2019-01-13T03:34:41.272Z,257.57
2019-01-13T03:37:12.542Z,255.03
2019-01-13T03:39:42.501Z,257.80
2019-01-13T03:42:12.262Z,253.73
2019-01-13T03:44:42.165Z,254.77
2019-01-13T03:47:11.886Z,253.85
2019-01-13T03:49:41.571Z,251.25
2019-01-13T03:52:11.396Z,252.60
2019-01-13T03:54:41.021Z,256.65
2019-01-13T03:57:10.769Z,260.98
2019-01-13T03:59:40.510Z,258.07
2019-01-13T04:02:10.448Z,262.55
2019-01-13T04:04:40.098Z,264.02
2019-01-13T04:07:09.913Z,258.23
2019-01-13T04:09:40.503Z,266.15
2019-01-13T04:12:10.252Z,256.47
2019-01-13T04:14:39.944Z,256.47
2019-01-13T04:17:10.312Z,261.52
2019-01-13T04:19:40.108Z,260.65
2019-01-13T04:22:10.358Z,266.73
2019-01-13T04:24:39.978Z,263.95
2019-01-13T04:27:09.700Z,261.57
2019-01-13T04:29:39.355Z,265.00
2019-01-13T04:32:09.027Z,271.23
2019-01-13T04:34:40.275Z,273.27
2019-01-13T04:37:09.952Z,271.20
2019-01-13T04:39:39.604Z,263.57
2019-01-13T04:42:09.218Z,267.70
2019-01-13T04:44:38.998Z,267.35
2019-01-13T04:47:09.678Z,260.63
2019-01-13T04:49:39.373Z,269.55
2019-01-13T04:52:10.043Z,261.73
2019-01-13T04:54:39.776Z,266.23
2019-01-13T04:57:09.448Z,267.57
2019-01-13T04:59:39.158Z,266.45
2019-01-13T05:02:08.844Z,271.32
2019-01-13T05:04:39.009Z,270.95
2019-01-13T05:07:08.877Z,271.90
2019-01-13T05:09:38.477Z,271.05
2019-01-13T05:12:08.284Z,269.00
2019-01-13T05:14:37.875Z,267.15
2019-01-13T05:17:07.629Z,266.60
2019-01-13T05:19:37.380Z,266.63
2019-01-13T05:22:07.154Z,268.07
2019-01-13T05:24:36.759Z,264.97
2019-01-13T05:27:06.561Z,267.37
2019-01-13T05:29:36.219Z,269.45
2019-01-13T05:32:07.045Z,265.70
2019-01-13T05:34:36.709Z,261.05
2019-01-13T05:37:06.562Z,272.25
2019-01-13T05:39:36.160Z,268.42
2019-01-13T05:42:05.910Z,275.62
2019-01-13T05:44:35.643Z,270.88
2019-01-13T05:47:05.321Z,276.55
2019-01-13T05:49:34.989Z,271.73
2019-01-13T05:52:04.757Z,271.65
2019-01-13T05:54:34.428Z,276.70
2019-01-13T05:57:04.162Z,274.80
2019-01-13T05:59:33.841Z,275.17
2019-01-13T06:02:03.584Z,266.52
2019-01-13T06:04:33.182Z,271.10
2019-01-13T06:07:02.962Z,270.73
2019-01-13T06:09:32.647Z,274.63
2019-01-13T06:12:02.415Z,273.02
2019-01-13T06:14:32.008Z,271.15
2019-01-13T06:17:02.686Z,271.20
2019-01-13T06:19:32.358Z,265.67
2019-01-13T06:22:02.129Z,272.77
2019-01-13T06:24:31.799Z,267.57
2019-01-13T06:27:01.540Z,264.80
2019-01-13T06:29:31.201Z,274.32
2019-01-13T06:32:00.989Z,269.48
2019-01-13T06:34:31.623Z,268.20
2019-01-13T06:37:01.450Z,265.60
2019-01-13T06:39:31.036Z,263.12
2019-01-13T06:42:00.658Z,265.85
2019-01-13T06:44:30.384Z,270.15
2019-01-13T06:47:00.239Z,269.60
2019-01-13T06:49:29.999Z,269.37
2019-01-13T06:51:59.685Z,264.65
2019-01-13T06:54:29.281Z,266.33
2019-01-13T06:56:59.000Z,271.37
2019-01-13T06:59:28.740Z,269.48
2019-01-13T07:02:03.373Z,270.35
2019-01-13T07:04:29.982Z,270.65
2019-01-13T07:06:59.862Z,266.70
2019-01-13T07:09:29.544Z,262.77
2019-01-13T07:11:59.294Z,267.70
2019-01-13T07:14:29.022Z,270.80
2019-01-13T07:16:58.796Z,273.02
2019-01-13T07:19:28.460Z,272.83
2019-01-13T07:21:58.207Z,267.60
2019-01-13T07:24:27.887Z,264.25
2019-01-13T07:26:57.639Z,262.02
2019-01-13T07:29:27.387Z,263.82
2019-01-13T07:31:57.137Z,265.23
2019-01-13T07:34:26.739Z,272.75
2019-01-13T07:36:56.506Z,266.23
2019-01-13T07:39:26.106Z,268.85
2019-01-13T07:41:55.872Z,276.40
2019-01-13T07:44:25.550Z,268.82
2019-01-13T07:46:55.281Z,268.27
2019-01-13T07:49:25.031Z,269.32
2019-01-13T07:51:54.735Z,273.65
2019-01-13T07:54:24.485Z,269.32
2019-01-13T07:56:54.181Z,276.45
2019-01-13T07:59:23.765Z,273.40
2019-01-13T08:01:53.521Z,276.00
2019-01-13T08:04:23.256Z,277.07
2019-01-13T08:06:52.949Z,277.87
2019-01-13T08:09:22.622Z,277.70
2019-01-13T08:11:53.252Z,274.30
2019-01-13T08:14:23.906Z,279.33
2019-01-13T08:16:53.700Z,277.65
2019-01-13T08:19:24.943Z,283.87
2019-01-13T08:21:55.172Z,277.25
2019-01-13T08:24:24.773Z,282.92
2019-01-13T08:26:54.572Z,281.20
2019-01-13T08:29:24.158Z,281.50
2019-01-13T08:31:53.914Z,287.42
2019-01-13T08:34:23.594Z,280.75
2019-01-13T08:36:53.309Z,286.23
2019-01-13T08:39:23.003Z,286.98
2019-01-13T08:41:52.816Z,284.37
2019-01-13T08:44:22.791Z,277.07
2019-01-13T08:46:52.603Z,280.15
2019-01-13T08:49:22.398Z,278.90
2019-01-13T08:51:52.161Z,284.98
2019-01-13T08:54:21.816Z,283.68
2019-01-13T08:56:51.574Z,280.75
2019-01-13T08:59:21.248Z,284.00
2019-01-13T09:01:51.054Z,284.52
2019-01-13T09:04:20.787Z,279.80
2019-01-13T09:06:50.411Z,283.20
2019-01-13T09:09:20.093Z,283.15
2019-01-13T09:11:49.855Z,285.63
2019-01-13T09:14:19.614Z,284.30
2019-01-13T09:16:49.365Z,281.13
2019-01-13T09:19:18.944Z,287.35
2019-01-13T09:21:48.752Z,281.95
2019-01-13T09:24:18.527Z,281.98
2019-01-13T09:26:51.156Z,278.23
2019-01-13T09:29:19.725Z,277.18
2019-01-13T09:31:49.427Z,276.98
2019-01-13T09:34:19.107Z,274.53
2019-01-13T09:36:48.874Z,281.32
2019-01-13T09:39:18.652Z,277.27
2019-01-13T09:41:48.250Z,278.02
2019-01-13T09:44:18.015Z,283.98
2019-01-13T09:46:47.602Z,283.43
2019-01-13T09:49:17.387Z,282.37
2019-01-13T09:51:47.066Z,281.02
2019-01-13T09:54:16.785Z,276.92
2019-01-13T09:56:46.440Z,284.83
2019-01-13T09:59:16.050Z,281.50
2019-01-13T10:01:45.860Z,282.70
2019-01-13T10:04:16.087Z,271.65
2019-01-13T10:06:46.904Z,278.95
2019-01-13T10:09:16.687Z,281.00
2019-01-13T10:11:46.433Z,279.45
2019-01-13T10:14:16.080Z,288.48
2019-01-13T10:16:46.713Z,290.62
2019-01-13T10:19:18.334Z,294.07
2019-01-13T10:21:48.165Z,289.17
2019-01-13T10:24:17.861Z,293.40
2019-01-13T10:26:47.662Z,297.12
2019-01-13T10:29:17.783Z,298.65
2019-01-13T10:31:47.630Z,289.90
2019-01-13T10:34:17.247Z,292.98
2019-01-13T10:36:46.994Z,283.60
2019-01-13T10:39:16.682Z,291.10
2019-01-13T10:41:46.784Z,296.35
2019-01-13T10:44:16.671Z,290.40
2019-01-13T10:46:46.337Z,285.17
2019-01-13T10:49:16.178Z,291.55
2019-01-13T10:51:45.994Z,287.48
2019-01-13T10:54:16.767Z,290.70
2019-01-13T10:56:46.499Z,287.08
2019-01-13T10:59:16.266Z,294.77
2019-01-13T11:01:45.918Z,285.13
2019-01-13T11:04:15.677Z,291.23
2019-01-13T11:06:45.277Z,286.70
2019-01-13T11:09:14.993Z,293.42
2019-01-13T11:11:44.667Z,285.50
2019-01-13T11:14:14.424Z,287.20
2019-01-13T11:16:44.231Z,288.37
2019-01-13T11:19:14.003Z,281.60
2019-01-13T11:21:43.775Z,287.27
2019-01-13T11:24:13.451Z,290.35
2019-01-13T11:26:43.443Z,286.20
2019-01-13T11:29:13.097Z,281.55
2019-01-13T11:31:43.034Z,286.60
2019-01-13T11:34:12.713Z,277.77
2019-01-13T11:36:42.393Z,278.00
2019-01-13T11:39:12.155Z,268.93
2019-01-13T11:41:41.837Z,277.27
2019-01-13T11:44:11.457Z,279.65
2019-01-13T11:46:41.262Z,269.25
2019-01-13T11:49:10.919Z,274.82
2019-01-13T11:51:40.658Z,270.93
2019-01-13T11:54:10.426Z,264.25
2019-01-13T11:56:40.308Z,266.35
2019-01-13T11:59:10.151Z,268.95
2019-01-13T12:01:39.823Z,270.07
2019-01-13T12:04:09.661Z,270.63
2019-01-13T12:06:39.443Z,266.38
2019-01-13T12:09:09.212Z,266.85
2019-01-13T12:11:38.893Z,277.55
2019-01-13T12:14:08.632Z,277.35
2019-01-13T12:16:38.311Z,277.22
2019-01-13T12:19:08.010Z,276.27
2019-01-13T12:21:37.686Z,280.57
2019-01-13T12:24:07.385Z,281.93
2019-01-13T12:26:37.129Z,278.83
2019-01-13T12:29:06.959Z,286.48
2019-01-13T12:31:36.926Z,282.12
2019-01-13T12:34:06.697Z,285.93
2019-01-13T12:36:36.454Z,286.48
2019-01-13T12:39:08.831Z,293.88
2019-01-13T12:41:38.721Z,283.97
2019-01-13T12:44:08.293Z,288.05
2019-01-13T12:46:38.259Z,286.23
2019-01-13T12:49:08.828Z,289.72
2019-01-13T12:51:38.655Z,293.05
2019-01-13T12:54:08.616Z,288.78
2019-01-13T12:56:39.926Z,293.75
2019-01-13T12:59:09.680Z,290.52
2019-01-13T13:01:39.429Z,291.17
2019-01-13T13:04:09.063Z,282.65
2019-01-13T13:06:39.705Z,299.07
2019-01-13T13:09:09.508Z,296.85
2019-01-13T13:11:39.244Z,294.95
2019-01-13T13:14:08.939Z,298.07
2019-01-13T13:16:38.684Z,300.95
2019-01-13T13:19:08.450Z,300.82
2019-01-13T13:21:38.363Z,310.65
2019-01-13T13:24:08.144Z,309.90
2019-01-13T13:26:37.832Z,302.62
2019-01-13T13:29:07.557Z,311.07
2019-01-13T13:31:37.218Z,308.45
2019-01-13T13:34:07.046Z,310.25
2019-01-13T13:36:36.981Z,310.60
2019-01-13T13:39:08.736Z,306.00
2019-01-13T13:41:38.582Z,302.03
2019-01-13T13:44:08.388Z,302.95
2019-01-13T13:46:38.154Z,306.95
2019-01-13T13:49:08.713Z,312.25
2019-01-13T13:51:38.516Z,305.77
2019-01-13T13:54:08.258Z,319.43
2019-01-13T13:56:38.032Z,312.82
2019-01-13T13:59:07.844Z,309.85
2019-01-13T14:01:37.708Z,311.02
2019-01-13T14:04:07.461Z,320.82
2019-01-13T14:06:37.171Z,309.48
2019-01-13T14:09:08.189Z,322.20
2019-01-13T14:11:38.106Z,316.70
2019-01-13T14:14:08.842Z,316.37
2019-01-13T14:16:38.501Z,317.77
2019-01-13T14:19:09.146Z,312.15
2019-01-13T14:21:38.913Z,320.07
2019-01-13T14:24:08.652Z,319.30
2019-01-13T14:26:39.361Z,316.05
2019-01-13T14:29:08.949Z,312.82
2019-01-13T14:31:38.837Z,320.50
2019-01-13T14:34:08.661Z,319.73
2019-01-13T14:36:38.492Z,317.70
2019-01-13T14:39:08.804Z,321.18
2019-01-13T14:41:38.648Z,312.98
2019-01-13T14:44:08.438Z,313.18
2019-01-13T14:46:39.125Z,318.13
2019-01-13T14:49:08.790Z,317.95
2019-01-13T14:51:38.492Z,317.60
2019-01-13T14:54:08.274Z,327.48
2019-01-13T14:56:37.959Z,315.20
2019-01-13T14:59:07.896Z,314.82
2019-01-13T15:01:38.692Z,318.25
2019-01-13T15:04:08.767Z,323.87
2019-01-13T15:06:38.616Z,320.30
2019-01-13T15:09:09.823Z,325.57
2019-01-13T15:11:39.595Z,324.10
2019-01-13T15:14:09.600Z,327.98
2019-01-13T15:16:39.418Z,326.77
2019-01-13T15:19:09.086Z,322.77
2019-01-13T15:21:38.890Z,326.95
2019-01-13T15:24:08.638Z,328.75
2019-01-13T15:26:38.293Z,329.17
2019-01-13T15:29:09.621Z,326.35
2019-01-13T15:31:39.548Z,329.38
2019-01-13T15:34:09.153Z,329.87
2019-01-13T15:36:39.056Z,334.67
2019-01-13T15:39:08.723Z,337.65
2019-01-13T15:41:38.506Z,332.30
2019-01-13T15:44:08.232Z,334.57
2019-01-13T15:46:37.965Z,341.57
2019-01-13T15:49:08.567Z,338.90
2019-01-13T15:51:38.350Z,341.63
2019-01-13T15:54:08.177Z,334.85
2019-01-13T15:56:38.034Z,333.43
2019-01-13T15:59:07.824Z,336.02
2019-01-13T16:01:37.615Z,342.43
2019-01-13T16:04:14.360Z,338.37
2019-01-13T16:06:38.839Z,340.17
2019-01-13T16:09:08.623Z,338.70
2019-01-13T16:11:38.359Z,337.65
2019-01-13T16:14:08.062Z,343.45
2019-01-13T16:16:38.830Z,346.55
2019-01-13T16:19:08.499Z,348.70
2019-01-13T16:21:38.232Z,350.60
2019-01-13T16:24:07.951Z,351.73
2019-01-13T16:26:37.637Z,353.62
2019-01-13T16:29:07.385Z,360.20
2019-01-13T16:31:37.002Z,354.05
2019-01-13T16:34:06.688Z,356.07
2019-01-13T16:36:36.471Z,352.53
2019-01-13T16:39:07.708Z,355.60
2019-01-13T16:41:37.432Z,356.57
2019-01-13T16:44:07.162Z,357.20
2019-01-13T16:46:36.887Z,351.73
2019-01-13T16:49:06.517Z,358.25
2019-01-13T16:51:36.264Z,354.68
2019-01-13T16:54:07.128Z,351.48
2019-01-13T16:56:36.856Z,350.10
2019-01-13T16:59:08.294Z,349.52
2019-01-13T17:01:38.071Z,345.12
2019-01-13T17:04:07.842Z,345.05
2019-01-13T17:06:37.563Z,335.90
2019-01-13T17:09:09.906Z,347.12
2019-01-13T17:11:39.581Z,344.02
2019-01-13T17:14:09.398Z,338.77
2019-01-13T17:16:39.113Z,341.23
2019-01-13T17:19:09.763Z,334.02
2019-01-13T17:21:39.607Z,342.85
2019-01-13T17:24:10.223Z,337.42
2019-01-13T17:26:39.957Z,329.48
2019-01-13T17:29:09.713Z,337.45
2019-01-13T17:31:39.443Z,338.20
2019-01-13T17:34:09.216Z,347.02
2019-01-13T17:36:38.879Z,338.73
2019-01-13T17:39:09.555Z,339.35
2019-01-13T17:41:39.312Z,338.77
2019-01-13T17:44:09.091Z,341.77
2019-01-13T17:46:38.930Z,343.97
2019-01-13T17:49:08.579Z,346.32
2019-01-13T17:51:38.356Z,347.30
2019-01-13T17:54:08.244Z,350.15
2019-01-13T17:56:38.814Z,360.27
2019-01-13T17:59:08.583Z,350.90
2019-01-13T18:01:38.247Z,354.20
2019-01-13T18:04:08.065Z,345.55
2019-01-13T18:06:37.801Z,358.45
2019-01-13T18:09:08.244Z,365.70
2019-01-13T18:11:37.986Z,351.67
2019-01-13T18:14:07.781Z,347.50
2019-01-13T18:16:37.468Z,359.85
2019-01-13T18:19:07.247Z,353.87
2019-01-13T18:21:36.990Z,356.27
2019-01-13T18:24:06.675Z,361.55
2019-01-13T18:26:37.005Z,355.50
2019-01-13T18:29:06.692Z,362.68
2019-01-13T18:31:36.439Z,360.90
2019-01-13T18:34:06.132Z,365.43
2019-01-13T18:36:35.875Z,356.20
2019-01-13T18:39:08.075Z,357.43
2019-01-13T18:41:37.865Z,353.55
2019-01-13T18:44:07.718Z,364.95
2019-01-13T18:46:37.519Z,363.00
2019-01-13T18:49:07.238Z,357.18
2019-01-13T18:51:37.041Z,357.75
2019-01-13T18:54:08.249Z,359.27
2019-01-13T18:56:38.214Z,359.98
2019-01-13T18:59:08.152Z,355.12
2019-01-13T19:01:38.721Z,347.17
2019-01-13T19:04:08.403Z,356.68
2019-01-13T19:06:38.128Z,365.23
2019-01-13T19:09:10.259Z,363.80
2019-01-13T19:11:40.091Z,362.57
2019-01-13T19:14:18.873Z,355.52
2019-01-13T19:16:52.017Z,362.10
2019-01-13T19:19:21.775Z,350.93
2019-01-13T19:21:51.507Z,359.60
2019-01-13T19:24:21.275Z,353.23
2019-01-13T19:26:51.868Z,355.02
2019-01-13T19:29:21.660Z,353.95
2019-01-13T19:31:51.234Z,347.97
2019-01-13T19:34:22.410Z,351.25
2019-01-13T19:36:52.210Z,335.68
2019-01-13T19:39:21.818Z,343.00
2019-01-13T19:41:51.689Z,352.60
2019-01-13T19:44:21.381Z,348.23
2019-01-13T19:46:51.069Z,351.48
2019-01-13T19:49:20.749Z,347.17
2019-01-13T19:51:50.478Z,359.00
2019-01-13T19:54:20.122Z,358.63
2019-01-13T19:56:49.852Z,363.48
2019-01-13T19:59:19.531Z,358.65
2019-01-13T20:01:49.231Z,361.00
2019-01-13T20:04:18.989Z,366.55
2019-01-13T20:06:48.675Z,361.65
2019-01-13T20:09:18.445Z,363.12
2019-01-13T20:11:48.243Z,365.07
2019-01-13T20:14:17.866Z,364.20
2019-01-13T20:16:47.610Z,360.65
2019-01-13T20:19:17.306Z,367.70
2019-01-13T20:21:47.112Z,368.30
2019-01-13T20:24:16.877Z,358.93
2019-01-13T20:26:46.587Z,363.27
2019-01-13T20:29:17.437Z,370.25
2019-01-13T20:31:47.299Z,364.27
2019-01-13T20:34:17.050Z,364.67
2019-01-13T20:36:46.708Z,368.33
2019-01-13T20:39:16.480Z,366.02
2019-01-13T20:41:46.223Z,361.43
2019-01-13T20:44:15.935Z,366.60
2019-01-13T20:46:45.625Z,360.13
2019-01-13T20:49:15.358Z,356.00
2019-01-13T20:51:45.007Z,369.02
2019-01-13T20:54:14.677Z,369.57
2019-01-13T20:56:44.303Z,359.65
2019-01-13T20:59:15.066Z,367.07
2019-01-13T21:01:44.748Z,362.83
2019-01-13T21:04:14.576Z,361.85
2019-01-13T21:06:44.379Z,369.57
2019-01-13T21:09:14.365Z,368.02
2019-01-13T21:11:45.136Z,364.68
2019-01-13T21:14:14.962Z,364.95
2019-01-13T21:16:44.682Z,361.23
2019-01-13T21:19:14.400Z,363.73
2019-01-13T21:21:44.091Z,364.25
2019-01-13T21:24:14.763Z,363.65
2019-01-13T21:26:44.619Z,368.45
2019-01-13T21:29:14.377Z,360.13
2019-01-13T21:31:44.629Z,361.07
2019-01-13T21:34:14.402Z,358.67
2019-01-13T21:36:44.298Z,359.55
2019-01-13T21:39:13.898Z,365.45
2019-01-13T21:41:43.679Z,364.25
2019-01-13T21:44:13.414Z,361.57
2019-01-13T21:46:43.097Z,358.23
2019-01-13T21:49:12.755Z,362.02
2019-01-13T21:51:43.123Z,365.92
2019-01-13T21:54:14.100Z,370.93
2019-01-13T21:56:43.914Z,368.57
2019-01-13T21:59:13.571Z,378.75
2019-01-13T22:01:43.360Z,374.70
2019-01-13T22:04:13.035Z,373.75
2019-01-13T22:06:42.778Z,374.95
2019-01-13T22:09:12.656Z,384.55
2019-01-13T22:11:42.475Z,383.45
2019-01-13T22:14:12.155Z,387.43
2019-01-13T22:16:41.984Z,378.15
2019-01-13T22:19:11.630Z,378.98
2019-01-13T22:21:41.448Z,393.27
2019-01-13T22:24:11.174Z,387.40
2019-01-13T22:26:40.965Z,405.93
2019-01-13T22:29:10.626Z,403.40
2019-01-13T22:31:40.389Z,389.60
2019-01-13T22:34:10.100Z,402.93
2019-01-13T22:36:39.870Z,397.48
2019-01-13T22:39:10.116Z,396.45
2019-01-13T22:41:39.987Z,402.47
2019-01-13T22:44:09.825Z,402.40
2019-01-13T22:46:39.473Z,402.25
2019-01-13T22:49:09.270Z,402.02
2019-01-13T22:51:39.020Z,403.02
2019-01-13T22:54:08.774Z,397.67
2019-01-13T22:56:38.465Z,396.43
2019-01-13T22:59:08.145Z,391.08
2019-01-13T23:01:39.491Z,383.47
2019-01-13T23:04:09.280Z,373.90
2019-01-13T23:06:39.011Z,374.90
2019-01-13T23:09:08.902Z,370.52
2019-01-13T23:11:38.700Z,368.75
2019-01-13T23:14:09.390Z,370.12
2019-01-13T23:16:39.830Z,365.47
2019-01-13T23:19:09.710Z,366.93
2019-01-13T23:21:39.466Z,365.85
2019-01-13T23:24:09.157Z,367.13
2019-01-13T23:26:38.814Z,361.35
2019-01-13T23:29:08.579Z,358.70
2019-01-13T23:31:38.313Z,365.18
2019-01-13T23:34:08.085Z,357.48
2019-01-13T23:36:37.752Z,360.30
2019-01-13T23:39:07.830Z,356.98
2019-01-13T23:41:37.512Z,348.00
2019-01-13T23:44:07.361Z,354.00
2019-01-13T23:46:37.096Z,356.50
2019-01-13T23:49:07.288Z,366.10
2019-01-13T23:51:37.089Z,359.65
2019-01-13T23:54:07.010Z,356.40
2019-01-13T23:56:36.830Z,356.02
2019-01-13T23:59:07.512Z,368.02
